Time;durP1;ratioP1;P1;durP2;ratioP2;P2;SDS_P1;SDS_P2;PMS_P1;PMS_P2;Temp;Humidity;BMP_temperature;BMP_pressure;BME280_temperature;BME280_humidity;BME280_pressure;Samples;Min_cycle;Max_cycle;Signal;HPM_P1;HPM_P2
2021/10/27 00:00:24;;;;;;;7.22;4.80;;;;;;;;;;5114535;28;20040;-77
2021/10/27 00:02:50;;;;;;;9.25;3.92;;;;;;;;;;5115360;28;20028;-77
2021/10/27 00:05:16;;;;;;;10.35;4.00;;;;;;;;;;5114184;28;20586;-77
2021/10/27 00:07:42;;;;;;;8.27;4.40;;;;;;;;;;5115640;28;20035;-77
2021/10/27 00:10:08;;;;;;;10.75;3.95;;;;;;;;;;5097885;28;20126;-77
2021/10/27 00:12:34;;;;;;;11.52;4.45;;;;;;;;;;5093889;28;20384;-77
2021/10/27 00:14:59;;;;;;;6.57;3.50;;;;;;;;;;5094524;28;20122;-77
2021/10/27 00:17:24;;;;;;;8.23;3.70;;;;;;;;;;5094576;28;20120;-77
2021/10/27 00:19:50;;;;;;;5.55;3.30;;;;;;;;;;5094461;28;20040;-77
2021/10/27 00:22:16;;;;;;;10.93;4.22;;;;;;;;;;5094738;28;20086;-78
2021/10/27 00:24:41;;;;;;;12.50;4.18;;;;;;;;;;5074546;28;20037;-77
2021/10/27 00:27:07;;;;;;;8.85;4.30;;;;;;;;;;5073227;28;20050;-77
2021/10/27 00:29:34;;;;;;;7.53;4.03;;;;;;;;;;5074549;28;20044;-77
2021/10/27 00:32:00;;;;;;;5.65;3.03;;;;;;;;;;5074319;28;20048;-77
2021/10/27 00:34:25;;;;;;;8.93;3.80;;;;;;;;;;5074294;28;20043;-77
2021/10/27 00:36:51;;;;;;;5.28;3.20;;;;;;;;;;5074413;28;20119;-77
2021/10/27 00:39:16;;;;;;;8.63;3.30;;;;;;;;;;5074168;28;20039;-77
2021/10/27 00:41:43;;;;;;;8.88;3.58;;;;;;;;;;5073845;28;20052;-77
2021/10/27 00:44:25;;;;;;;8.75;3.55;;;;;;;;;;5074212;28;20079;-77
2021/10/27 00:47:04;;;;;;;6.32;2.95;;;;;;;;;;5107799;28;20142;-77
2021/10/27 00:49:32;;;;;;;10.50;3.00;;;;;;;;;;5114424;28;20035;-76
2021/10/27 00:51:58;;;;;;;7.05;3.30;;;;;;;;;;5114665;28;20063;-77
2021/10/27 00:54:25;;;;;;;6.45;2.70;;;;;;;;;;5114658;28;20055;-77
2021/10/27 00:56:53;;;;;;;7.20;3.03;;;;;;;;;;5095470;28;20032;-77
2021/10/27 00:59:19;;;;;;;7.15;3.38;;;;;;;;;;5094395;28;20036;-77
2021/10/27 01:01:45;;;;;;;7.30;3.17;;;;;;;;;;5093641;28;20437;-77
2021/10/27 01:04:10;;;;;;;10.13;4.20;;;;;;;;;;5111250;28;20088;-77
2021/10/27 01:06:35;;;;;;;7.45;3.50;;;;;;;;;;5114147;28;20039;-77
2021/10/27 01:09:03;;;;;;;8.60;3.10;;;;;;;;;;5097577;28;20040;-76
2021/10/27 01:11:28;;;;;;;6.45;3.50;;;;;;;;;;5093739;28;20040;-77
2021/10/27 01:13:53;;;;;;;9.52;2.97;;;;;;;;;;5093894;28;20047;-77
2021/10/27 01:16:19;;;;;;;5.95;3.13;;;;;;;;;;5082321;28;20044;-77
2021/10/27 01:18:44;;;;;;;8.25;3.30;;;;;;;;;;5073765;28;20031;-77
2021/10/27 01:21:10;;;;;;;8.85;3.25;;;;;;;;;;5073482;28;20039;-77
2021/10/27 01:23:35;;;;;;;8.13;3.72;;;;;;;;;;5072374;28;20071;-76
2021/10/27 01:26:06;;;;;;;7.55;3.08;;;;;;;;;;5072044;28;20036;-77
2021/10/27 01:28:39;;;;;;;6.80;3.20;;;;;;;;;;5075901;28;20035;-77
2021/10/27 01:31:05;;;;;;;4.28;3.22;;;;;;;;;;5093363;28;20036;-76
2021/10/27 01:33:31;;;;;;;6.43;3.35;;;;;;;;;;5093381;28;20089;-77
2021/10/27 01:35:56;;;;;;;5.03;2.80;;;;;;;;;;5093794;28;20036;-76
2021/10/27 01:38:22;;;;;;;11.35;3.40;;;;;;;;;;5093311;28;20032;-77
2021/10/27 01:40:47;;;;;;;6.25;3.33;;;;;;;;;;5093094;28;20044;-77
2021/10/27 01:43:12;;;;;;;4.78;3.20;;;;;;;;;;5093449;28;20081;-76
2021/10/27 01:45:38;;;;;;;5.20;3.30;;;;;;;;;;5093708;28;20036;-77
2021/10/27 01:48:04;;;;;;;13.57;3.13;;;;;;;;;;5093327;28;20032;-77
2021/10/27 01:50:29;;;;;;;11.80;2.72;;;;;;;;;;5093654;28;20500;-77
2021/10/27 01:52:55;;;;;;;6.75;3.13;;;;;;;;;;5093124;28;20527;-77
2021/10/27 01:55:20;;;;;;;6.80;3.17;;;;;;;;;;5092710;28;20044;-77
2021/10/27 01:57:47;;;;;;;10.65;3.15;;;;;;;;;;5092844;28;20078;-77
2021/10/27 02:00:13;;;;;;;8.77;3.20;;;;;;;;;;5093600;28;20482;-77
2021/10/27 02:02:40;;;;;;;9.18;3.03;;;;;;;;;;5092200;28;20032;-77
2021/10/27 02:05:07;;;;;;;7.82;2.28;;;;;;;;;;5092192;28;20470;-77
2021/10/27 02:07:32;;;;;;;7.30;2.78;;;;;;;;;;5092233;28;20043;-77
2021/10/27 02:09:57;;;;;;;8.70;2.63;;;;;;;;;;5076542;28;20042;-77
2021/10/27 02:12:23;;;;;;;5.38;2.78;;;;;;;;;;5072065;28;20033;-77
2021/10/27 02:14:49;;;;;;;8.57;3.00;;;;;;;;;;5072769;28;20496;-77
2021/10/27 02:17:15;;;;;;;7.93;2.90;;;;;;;;;;5073046;28;20108;-77
2021/10/27 02:19:40;;;;;;;4.10;2.83;;;;;;;;;;5072733;28;20056;-77
2021/10/27 02:22:05;;;;;;;12.73;3.42;;;;;;;;;;5072949;28;20549;-76
2021/10/27 02:24:31;;;;;;;7.05;2.60;;;;;;;;;;5073021;28;20090;-77
2021/10/27 02:26:56;;;;;;;8.43;2.97;;;;;;;;;;5071347;28;20441;-77
2021/10/27 02:29:22;;;;;;;7.97;3.20;;;;;;;;;;5072745;28;20051;-76
2021/10/27 02:31:48;;;;;;;6.00;2.70;;;;;;;;;;5071186;28;20032;-76
2021/10/27 02:34:14;;;;;;;10.07;2.90;;;;;;;;;;5072964;28;20538;-77
2021/10/27 02:36:39;;;;;;;9.18;3.40;;;;;;;;;;5073032;28;20036;-77
2021/10/27 02:39:05;;;;;;;11.45;3.78;;;;;;;;;;5085312;28;20038;-77
2021/10/27 02:41:30;;;;;;;6.05;3.20;;;;;;;;;;5091154;28;20505;-77
2021/10/27 02:43:56;;;;;;;10.60;3.22;;;;;;;;;;5094995;28;20039;-76
2021/10/27 02:46:21;;;;;;;11.02;3.85;;;;;;;;;;5094775;28;20039;-78
2021/10/27 02:48:47;;;;;;;5.18;3.10;;;;;;;;;;5096631;28;20035;-77
2021/10/27 02:51:12;;;;;;;11.38;3.58;;;;;;;;;;5096219;28;20406;-77
2021/10/27 02:53:38;;;;;;;7.32;3.00;;;;;;;;;;5096636;28;20062;-77
2021/10/27 02:56:03;;;;;;;10.90;4.30;;;;;;;;;;5096395;28;20032;-77
2021/10/27 02:58:29;;;;;;;4.70;3.20;;;;;;;;;;5096167;28;20093;-77
2021/10/27 03:00:54;;;;;;;8.63;3.22;;;;;;;;;;5096003;28;20028;-77
2021/10/27 03:03:20;;;;;;;7.15;3.38;;;;;;;;;;5095147;28;20040;-77
2021/10/27 03:05:46;;;;;;;9.57;3.97;;;;;;;;;;5096336;28;20074;-76
2021/10/27 03:08:11;;;;;;;6.68;3.30;;;;;;;;;;5095696;28;20040;-76
2021/10/27 03:10:37;;;;;;;11.52;3.17;;;;;;;;;;5095853;28;20036;-77
2021/10/27 03:13:02;;;;;;;6.15;3.50;;;;;;;;;;5096389;28;20027;-77
2021/10/27 03:15:27;;;;;;;7.38;2.92;;;;;;;;;;5096225;28;20043;-77
2021/10/27 03:17:53;;;;;;;8.95;3.28;;;;;;;;;;5094797;28;20489;-77
2021/10/27 03:20:19;;;;;;;13.18;3.40;;;;;;;;;;5096107;28;20419;-77
2021/10/27 03:22:44;;;;;;;6.43;3.22;;;;;;;;;;5095668;28;20036;-77
2021/10/27 03:25:10;;;;;;;5.03;2.72;;;;;;;;;;5095790;28;20035;-77
2021/10/27 03:27:35;;;;;;;9.15;4.70;;;;;;;;;;5095964;28;20502;-77
2021/10/27 03:30:01;;;;;;;6.10;3.05;;;;;;;;;;5095447;28;20067;-77
2021/10/27 03:32:27;;;;;;;11.25;3.42;;;;;;;;;;5095827;28;20072;-76
2021/10/27 03:34:52;;;;;;;5.53;3.50;;;;;;;;;;5095624;28;20127;-76
2021/10/27 03:37:18;;;;;;;8.52;3.75;;;;;;;;;;5096015;28;20089;-77
2021/10/27 03:39:43;;;;;;;14.52;3.90;;;;;;;;;;5095582;28;20043;-77
2021/10/27 03:42:09;;;;;;;8.13;3.78;;;;;;;;;;5095290;28;20036;-77
2021/10/27 03:44:34;;;;;;;8.38;3.90;;;;;;;;;;5095590;28;20134;-77
2021/10/27 03:46:59;;;;;;;11.18;4.10;;;;;;;;;;5083600;28;20035;-76
2021/10/27 03:49:25;;;;;;;11.35;3.92;;;;;;;;;;5074901;28;20047;-77
2021/10/27 03:51:50;;;;;;;8.10;3.83;;;;;;;;;;5075180;28;20044;-77
2021/10/27 03:54:16;;;;;;;11.00;4.00;;;;;;;;;;5075026;28;20036;-77
2021/10/27 03:56:41;;;;;;;9.70;4.35;;;;;;;;;;5074759;28;20037;-77
2021/10/27 03:59:07;;;;;;;9.32;3.85;;;;;;;;;;5074627;28;20025;-77
2021/10/27 04:01:33;;;;;;;10.07;4.75;;;;;;;;;;5074672;28;20467;-77
2021/10/27 04:03:59;;;;;;;6.82;3.92;;;;;;;;;;5075391;28;20036;-77
2021/10/27 04:06:25;;;;;;;13.23;4.68;;;;;;;;;;5075131;28;20588;-76
2021/10/27 04:08:50;;;;;;;6.18;4.53;;;;;;;;;;5084115;28;20111;-77
2021/10/27 04:11:16;;;;;;;10.30;4.80;;;;;;;;;;5094510;28;20088;-77
2021/10/27 04:13:41;;;;;;;14.57;4.78;;;;;;;;;;5077213;28;20039;-77
2021/10/27 04:16:07;;;;;;;7.43;3.95;;;;;;;;;;5094939;28;20040;-77
2021/10/27 04:18:32;;;;;;;11.75;4.45;;;;;;;;;;5095003;28;20051;-77
2021/10/27 04:20:58;;;;;;;7.78;4.30;;;;;;;;;;5102484;28;20031;-77
2021/10/27 04:23:24;;;;;;;11.98;3.58;;;;;;;;;;5115371;28;20066;-77
2021/10/27 04:25:49;;;;;;;11.93;4.72;;;;;;;;;;5102551;28;20024;-77
2021/10/27 04:28:15;;;;;;;12.77;4.88;;;;;;;;;;5074647;28;20036;-77
2021/10/27 04:30:40;;;;;;;11.00;4.10;;;;;;;;;;5078204;28;20036;-77
2021/10/27 04:33:21;;;;;;;17.40;5.63;;;;;;;;;;5115013;28;20039;-77
2021/10/27 04:35:46;;;;;;;8.68;3.90;;;;;;;;;;5114925;28;20035;-77
2021/10/27 04:38:13;;;;;;;9.43;4.20;;;;;;;;;;5113954;28;20038;-77
2021/10/27 04:40:42;;;;;;;11.38;4.68;;;;;;;;;;5114079;27;20052;-76
2021/10/27 04:43:07;;;;;;;8.82;4.10;;;;;;;;;;5114565;28;20500;-77
2021/10/27 04:45:33;;;;;;;11.95;3.92;;;;;;;;;;5114994;28;20035;-76
2021/10/27 04:47:58;;;;;;;15.00;4.65;;;;;;;;;;5114792;28;20035;-76
2021/10/27 04:50:24;;;;;;;6.25;3.38;;;;;;;;;;5114555;28;20031;-77
2021/10/27 04:52:49;;;;;;;5.57;3.70;;;;;;;;;;5114639;28;20035;-77
2021/10/27 04:55:15;;;;;;;9.35;4.03;;;;;;;;;;5113469;28;20051;-77
2021/10/27 04:57:40;;;;;;;10.93;4.45;;;;;;;;;;5114441;28;20043;-77
2021/10/27 05:00:06;;;;;;;8.05;4.57;;;;;;;;;;5112508;28;20039;-77
2021/10/27 05:02:31;;;;;;;9.15;4.88;;;;;;;;;;5093600;28;20032;-77
2021/10/27 05:04:57;;;;;;;8.85;4.63;;;;;;;;;;5093937;28;20294;-77
2021/10/27 05:07:24;;;;;;;10.57;4.78;;;;;;;;;;5093174;28;20024;-77
2021/10/27 05:09:50;;;;;;;11.88;5.43;;;;;;;;;;5093681;28;20657;-77
2021/10/27 05:12:15;;;;;;;10.95;5.80;;;;;;;;;;5093826;28;20130;-77
2021/10/27 05:14:41;;;;;;;10.40;5.55;;;;;;;;;;5094081;28;20067;-77
2021/10/27 05:17:15;;;;;;;12.73;5.47;;;;;;;;;;5099368;28;20477;-77
2021/10/27 05:19:42;;;;;;;8.15;4.50;;;;;;;;;;5112708;28;20036;-77
2021/10/27 05:22:09;;;;;;;5.97;4.15;;;;;;;;;;5114063;28;20122;-77
2021/10/27 05:24:34;;;;;;;15.98;5.63;;;;;;;;;;5113007;28;20081;-77
2021/10/27 05:27:00;;;;;;;8.27;4.78;;;;;;;;;;5114300;27;20067;-76
2021/10/27 05:29:26;;;;;;;7.50;4.20;;;;;;;;;;5112722;28;20042;-77
2021/10/27 05:31:51;;;;;;;9.85;3.80;;;;;;;;;;5113514;28;20066;-77
2021/10/27 05:34:16;;;;;;;13.25;3.72;;;;;;;;;;5114104;28;20043;-77
2021/10/27 05:36:42;;;;;;;9.20;4.07;;;;;;;;;;5114128;28;20051;-77
2021/10/27 05:39:10;;;;;;;13.73;4.88;;;;;;;;;;5113805;28;20040;-76
2021/10/27 05:41:36;;;;;;;8.77;5.15;;;;;;;;;;5094686;28;20367;-76
2021/10/27 05:44:02;;;;;;;9.80;4.78;;;;;;;;;;5093449;28;20043;-76
2021/10/27 05:46:28;;;;;;;10.13;5.88;;;;;;;;;;5093627;28;20043;-76
2021/10/27 05:49:22;;;;;;;7.50;5.35;;;;;;;;;;5092473;28;20033;-75
2021/10/27 05:56:57;;;;;;;13.30;5.35;;;;;;;;;;5093009;28;20136;-76
2021/10/27 05:59:23;;;;;;;11.27;5.78;;;;;;;;;;5092812;28;20046;-75
2021/10/27 06:01:48;;;;;;;13.63;7.03;;;;;;;;;;5093085;28;20435;-77
2021/10/27 06:04:16;;;;;;;11.07;5.88;;;;;;;;;;5093145;28;20040;-76
2021/10/27 06:06:42;;;;;;;12.10;5.28;;;;;;;;;;5092852;28;20430;-77
2021/10/27 06:09:07;;;;;;;10.77;5.22;;;;;;;;;;5091812;28;20051;-76
2021/10/27 06:11:33;;;;;;;12.63;5.47;;;;;;;;;;5092556;28;20133;-76
2021/10/27 06:14:02;;;;;;;8.57;4.82;;;;;;;;;;5093281;28;20034;-76
2021/10/27 06:16:27;;;;;;;13.63;5.10;;;;;;;;;;5092777;28;20531;-77
2021/10/27 06:18:53;;;;;;;14.02;5.07;;;;;;;;;;5095405;28;20036;-76
2021/10/27 06:21:18;;;;;;;11.52;4.65;;;;;;;;;;5095858;28;20107;-77
2021/10/27 06:23:43;;;;;;;8.85;4.90;;;;;;;;;;5097278;28;20077;-77
2021/10/27 06:26:09;;;;;;;9.30;4.90;;;;;;;;;;5097625;28;20080;-75
2021/10/27 06:29:12;;;;;;;9.77;4.60;;;;;;;;;;5096834;28;20090;-75
2021/10/27 06:31:39;;;;;;;8.95;4.68;;;;;;;;;;5095543;28;20059;-77
2021/10/27 06:47:30;;;;;;;17.55;5.50;;;;;;;;;;5096528;28;20073;-74
2021/10/27 06:49:56;;;;;;;10.93;5.35;;;;;;;;;;5096905;28;20047;-76
2021/10/27 06:52:21;;;;;;;7.25;4.68;;;;;;;;;;5096342;28;20036;-76
2021/10/27 06:54:51;;;;;;;8.60;5.55;;;;;;;;;;5096422;28;20047;-76
2021/10/27 06:57:19;;;;;;;7.82;5.05;;;;;;;;;;5096426;28;20028;-76
2021/10/27 06:59:45;;;;;;;12.02;5.72;;;;;;;;;;5096622;28;20126;-76
2021/10/27 07:02:47;;;;;;;12.93;6.40;;;;;;;;;;5096294;28;20094;-78
2021/10/27 07:16:01;;;;;;;12.00;5.35;;;;;;;;;;5076029;28;20127;-77
2021/10/27 07:18:27;;;;;;;9.35;6.18;;;;;;;;;;5092118;28;20040;-77
2021/10/27 07:20:52;;;;;;;9.85;6.30;;;;;;;;;;5096101;28;20050;-76
2021/10/27 07:23:18;;;;;;;9.63;5.53;;;;;;;;;;5097756;28;20128;-79
2021/10/27 07:25:44;;;;;;;9.90;5.85;;;;;;;;;;5096592;28;20027;-76
2021/10/27 07:28:10;;;;;;;13.43;6.38;;;;;;;;;;5096294;28;20035;-75
2021/10/27 07:30:36;;;;;;;12.25;6.20;;;;;;;;;;5095137;28;20085;-76
2021/10/27 07:33:02;;;;;;;15.80;6.75;;;;;;;;;;5094450;28;20032;-76
2021/10/27 07:40:43;;;;;;;27.52;6.57;;;;;;;;;;5096746;28;20040;-77
2021/10/27 07:43:13;;;;;;;13.93;6.00;;;;;;;;;;5096775;28;20458;-77
2021/10/27 07:45:40;;;;;;;13.18;6.85;;;;;;;;;;5095847;28;20044;-76
2021/10/27 07:48:06;;;;;;;11.55;6.28;;;;;;;;;;5095772;28;20091;-77
2021/10/27 07:50:33;;;;;;;16.55;7.18;;;;;;;;;;5100002;28;20043;-77
2021/10/27 07:53:04;;;;;;;11.73;6.10;;;;;;;;;;5094977;28;20040;-78
2021/10/27 07:55:31;;;;;;;9.95;5.90;;;;;;;;;;5094839;28;20533;-77
2021/10/27 07:57:56;;;;;;;8.05;6.13;;;;;;;;;;5095319;28;20058;-75
2021/10/27 08:00:22;;;;;;;8.57;5.70;;;;;;;;;;5095273;28;20024;-75
2021/10/27 08:02:49;;;;;;;11.40;6.20;;;;;;;;;;5095326;28;20028;-75
2021/10/27 08:05:16;;;;;;;9.70;6.32;;;;;;;;;;5095441;28;20036;-76
2021/10/27 08:07:50;;;;;;;17.33;6.40;;;;;;;;;;5093727;28;20492;-76
2021/10/27 08:10:19;;;;;;;10.85;6.13;;;;;;;;;;5093969;28;20079;-76
2021/10/27 08:12:46;;;;;;;10.75;6.05;;;;;;;;;;5095006;28;20028;-76
2021/10/27 08:15:13;;;;;;;13.55;6.10;;;;;;;;;;5095167;28;20058;-76
2021/10/27 08:17:40;;;;;;;11.40;5.80;;;;;;;;;;5092814;28;20040;-76
2021/10/27 08:20:08;;;;;;;10.68;6.72;;;;;;;;;;5094283;28;20035;-76
2021/10/27 08:22:35;;;;;;;11.52;7.15;;;;;;;;;;5094201;28;20513;-77
2021/10/27 08:25:06;;;;;;;10.95;5.47;;;;;;;;;;5095041;28;20043;-75
2021/10/27 08:27:35;;;;;;;11.43;5.93;;;;;;;;;;5095433;28;20040;-76
2021/10/27 08:30:06;;;;;;;9.50;6.40;;;;;;;;;;5095818;28;20474;-76
2021/10/27 08:35:34;;;;;;;13.07;6.65;;;;;;;;;;5085045;28;20517;-76
2021/10/27 08:37:59;;;;;;;8.55;5.85;;;;;;;;;;5096591;28;20142;-76
2021/10/27 08:40:27;;;;;;;8.65;5.93;;;;;;;;;;5094933;28;20032;-76
2021/10/27 08:42:56;;;;;;;9.50;5.38;;;;;;;;;;5096268;28;20067;-76
2021/10/27 08:45:21;;;;;;;9.52;5.45;;;;;;;;;;5097114;28;20089;-76
2021/10/27 08:47:51;;;;;;;8.85;5.90;;;;;;;;;;5097891;28;20032;-77
2021/10/27 08:50:20;;;;;;;10.73;4.85;;;;;;;;;;5096672;28;20036;-77
2021/10/27 08:52:47;;;;;;;8.55;5.28;;;;;;;;;;5099739;28;20042;-76
2021/10/27 08:55:16;;;;;;;8.27;4.72;;;;;;;;;;5082611;28;20119;-77
2021/10/27 08:57:49;;;;;;;11.40;5.22;;;;;;;;;;5088143;28;20089;-77
2021/10/27 10:05:45;;;;;;;3.55;2.90;;;;;;;;;;5093163;28;20039;-74
2021/10/27 10:08:11;;;;;;;5.68;3.00;;;;;;;;;;5092093;28;20040;-73
2021/10/27 10:10:37;;;;;;;5.47;2.97;;;;;;;;;;5093246;28;20071;-73
2021/10/27 10:13:02;;;;;;;5.78;2.63;;;;;;;;;;5093526;28;20067;-74
2021/10/27 10:15:37;;;;;;;6.15;2.60;;;;;;;;;;5093657;28;20389;-74
2021/10/27 10:18:02;;;;;;;7.25;2.70;;;;;;;;;;5090737;28;20066;-76
2021/10/27 10:20:28;;;;;;;9.38;2.67;;;;;;;;;;5093163;28;20028;-73
2021/10/27 10:22:53;;;;;;;5.85;2.58;;;;;;;;;;5093251;28;20393;-74
2021/10/27 10:25:22;;;;;;;6.18;3.28;;;;;;;;;;5092999;28;20484;-73
2021/10/27 10:27:49;;;;;;;5.90;2.42;;;;;;;;;;5093288;28;20036;-74
2021/10/27 10:30:48;;;;;;;7.28;3.30;;;;;;;;;;5093324;28;20036;-74
2021/10/27 10:33:14;;;;;;;6.70;2.63;;;;;;;;;;5093075;28;20059;-74
2021/10/27 10:35:51;;;;;;;7.30;2.80;;;;;;;;;;5093016;28;20046;-75
2021/10/27 10:44:56;;;;;;;8.02;2.88;;;;;;;;;;5071877;28;20037;-77
2021/10/27 11:27:24;;;;;;;;;;;;;;;;;;5115740;28;20036;-75
2021/10/27 11:38:17;;;;;;;6.63;2.45;;;;;;;;;;5114758;28;20036;-77
2021/10/27 11:40:50;;;;;;;5.45;2.60;;;;;;;;;;5075028;28;20040;-75
2021/10/27 11:43:25;;;;;;;6.55;3.05;;;;;;;;;;5075524;28;20032;-76
2021/10/27 11:45:54;;;;;;;7.40;3.13;;;;;;;;;;5075481;28;20464;-76
2021/10/27 11:48:34;;;;;;;6.20;2.85;;;;;;;;;;5075037;28;20359;-75
2021/10/27 11:51:11;;;;;;;5.25;3.13;;;;;;;;;;5075247;28;20032;-76
2021/10/27 11:53:38;;;;;;;8.38;4.53;;;;;;;;;;5073405;28;20025;-76
2021/10/27 11:56:21;;;;;;;11.68;3.40;;;;;;;;;;5093949;28;20048;-76
2021/10/27 11:58:49;;;;;;;7.47;3.47;;;;;;;;;;5095458;28;20119;-75
2021/10/27 12:01:34;;;;;;;5.07;3.50;;;;;;;;;;5095295;28;20122;-74
2021/10/27 12:04:04;;;;;;;6.32;4.10;;;;;;;;;;5095314;28;20159;-75
2021/10/27 12:09:47;;;;;;;5.72;3.97;;;;;;;;;;5094724;28;20042;-76
2021/10/27 12:15:09;;;;;;;7.68;3.72;;;;;;;;;;5094976;28;20115;-76
2021/10/27 12:17:38;;;;;;;12.23;3.83;;;;;;;;;;5092386;28;20047;-76
2021/10/27 12:20:04;;;;;;;5.82;4.05;;;;;;;;;;5094967;28;20070;-76
2021/10/27 12:22:32;;;;;;;4.75;3.30;;;;;;;;;;5094855;28;20040;-76
2021/10/27 12:25:00;;;;;;;5.38;3.40;;;;;;;;;;5094073;28;20055;-76
2021/10/27 12:27:34;;;;;;;7.38;4.10;;;;;;;;;;5095053;28;20047;-76
2021/10/27 12:30:08;;;;;;;8.88;3.90;;;;;;;;;;5093327;28;20124;-76
2021/10/27 12:32:47;;;;;;;6.53;3.70;;;;;;;;;;5094341;28;20386;-76
2021/10/27 12:35:13;;;;;;;4.93;3.15;;;;;;;;;;5094002;28;20028;-76
2021/10/27 12:40:14;;;;;;;7.85;3.88;;;;;;;;;;5094263;28;20044;-76
2021/10/27 12:42:39;;;;;;;10.70;3.90;;;;;;;;;;5093153;28;20036;-76
2021/10/27 12:45:05;;;;;;;7.97;3.42;;;;;;;;;;5094819;28;20515;-76
2021/10/27 12:47:33;;;;;;;5.47;2.80;;;;;;;;;;5094624;28;20047;-76
2021/10/27 12:50:18;;;;;;;4.55;2.72;;;;;;;;;;5094424;28;20028;-76
2021/10/27 12:52:52;;;;;;;8.55;3.35;;;;;;;;;;5094216;28;20043;-76
2021/10/27 12:55:19;;;;;;;4.85;3.13;;;;;;;;;;5092888;28;20036;-76
2021/10/27 12:57:56;;;;;;;7.05;3.45;;;;;;;;;;5094396;28;20093;-76
2021/10/27 13:00:55;;;;;;;5.55;3.00;;;;;;;;;;5094107;28;20043;-76
2021/10/27 13:21:33;;;;;;;10.77;4.72;;;;;;;;;;5092426;28;20039;-76
2021/10/27 13:32:22;;;;;;;17.92;9.75;;;;;;;;;;5031354;28;20551;-76
2021/10/27 13:34:48;;;;;;;11.35;5.53;;;;;;;;;;5036888;28;20037;-76
2021/10/27 13:37:14;;;;;;;10.63;5.70;;;;;;;;;;5051003;28;20051;-76
2021/10/27 13:39:41;;;;;;;11.20;6.13;;;;;;;;;;5073359;28;20072;-76
2021/10/27 13:42:57;;;;;;;10.90;5.97;;;;;;;;;;5091329;28;20032;-76
2021/10/27 14:06:10;;;;;;;11.57;5.93;;;;;;;;;;5093048;28;20028;-76
2021/10/27 14:08:47;;;;;;;10.32;6.10;;;;;;;;;;5074372;28;20089;-76
2021/10/27 14:39:00;;;;;;;10.93;3.67;;;;;;;;;;5093210;28;20125;-76
2021/10/27 15:21:44;;;;;;;7.32;3.22;;;;;;;;;;5096218;28;20040;-76
2021/10/27 15:29:27;;;;;;;6.95;3.35;;;;;;;;;;5095831;28;20423;-76
2021/10/27 15:34:46;;;;;;;9.82;3.42;;;;;;;;;;5095832;28;20065;-76
2021/10/27 15:40:21;;;;;;;8.45;3.08;;;;;;;;;;5094540;28;20040;-76
2021/10/27 15:45:34;;;;;;;6.22;2.85;;;;;;;;;;5092359;28;20047;-75
2021/10/27 15:50:50;;;;;;;10.00;3.13;;;;;;;;;;5094726;28;20028;-75
2021/10/27 15:53:17;;;;;;;6.63;3.45;;;;;;;;;;5095536;28;20074;-75
2021/10/27 15:55:43;;;;;;;8.55;2.90;;;;;;;;;;5095335;28;20036;-75
2021/10/27 15:58:08;;;;;;;7.18;3.63;;;;;;;;;;5108788;28;20046;-75
2021/10/27 16:00:38;;;;;;;8.00;3.25;;;;;;;;;;5114528;28;20122;-75
2021/10/27 16:03:05;;;;;;;5.88;2.70;;;;;;;;;;5115609;28;20522;-75
2021/10/27 16:05:30;;;;;;;5.43;2.60;;;;;;;;;;5115671;28;20534;-75
2021/10/27 16:07:56;;;;;;;9.00;3.00;;;;;;;;;;5115643;28;20039;-74
2021/10/27 16:10:22;;;;;;;5.07;3.05;;;;;;;;;;5096513;28;20093;-75
2021/10/27 16:12:48;;;;;;;6.82;3.00;;;;;;;;;;5093638;28;20527;-75
2021/10/27 16:15:24;;;;;;;5.53;3.33;;;;;;;;;;5095025;28;20123;-75
2021/10/27 16:17:52;;;;;;;7.60;4.20;;;;;;;;;;5076182;28;20114;-75
2021/10/27 16:20:18;;;;;;;11.07;2.90;;;;;;;;;;5094893;28;20090;-75
2021/10/27 16:22:44;;;;;;;7.82;3.15;;;;;;;;;;5094877;28;20492;-75
2021/10/27 16:25:11;;;;;;;6.85;3.78;;;;;;;;;;5094759;28;20131;-75
2021/10/27 16:27:36;;;;;;;7.72;3.47;;;;;;;;;;5094938;28;20070;-75
2021/10/27 16:30:04;;;;;;;8.32;4.35;;;;;;;;;;5094757;28;20027;-75
2021/10/27 16:32:30;;;;;;;13.20;5.63;;;;;;;;;;5094427;28;20101;-75
2021/10/27 16:34:55;;;;;;;20.08;5.07;;;;;;;;;;5094669;28;20035;-75
2021/10/27 16:37:22;;;;;;;9.65;4.28;;;;;;;;;;5094658;28;20520;-75
2021/10/27 16:39:47;;;;;;;4.97;3.30;;;;;;;;;;5078561;28;20042;-75
2021/10/27 16:42:13;;;;;;;12.82;4.10;;;;;;;;;;5074144;28;20033;-75
2021/10/27 16:44:38;;;;;;;7.10;3.67;;;;;;;;;;5074393;28;20032;-75
2021/10/27 16:47:04;;;;;;;5.93;3.30;;;;;;;;;;5074386;28;20390;-75
2021/10/27 16:49:29;;;;;;;12.35;4.55;;;;;;;;;;5075340;28;20040;-75
2021/10/27 16:51:54;;;;;;;9.65;3.95;;;;;;;;;;5075396;28;20036;-75
2021/10/27 16:54:20;;;;;;;5.85;3.30;;;;;;;;;;5072516;28;20044;-75
2021/10/27 16:56:47;;;;;;;18.17;7.90;;;;;;;;;;5074267;28;20051;-75
2021/10/27 16:59:12;;;;;;;18.10;8.77;;;;;;;;;;5073848;28;20043;-75
2021/10/27 17:01:39;;;;;;;24.38;12.40;;;;;;;;;;5076394;28;20043;-75
2021/10/27 17:04:05;;;;;;;21.55;12.73;;;;;;;;;;5093567;28;20512;-75
2021/10/27 17:06:33;;;;;;;26.55;12.13;;;;;;;;;;5094158;28;20098;-75
2021/10/27 17:08:59;;;;;;;24.40;12.40;;;;;;;;;;5087424;28;20052;-75
2021/10/27 17:11:24;;;;;;;25.85;10.43;;;;;;;;;;5072217;28;20041;-75
2021/10/27 17:13:49;;;;;;;17.90;9.63;;;;;;;;;;5073949;28;20040;-75
2021/10/27 17:16:16;;;;;;;15.75;8.30;;;;;;;;;;5073432;28;20039;-75
2021/10/27 17:18:43;;;;;;;40.65;21.63;;;;;;;;;;5100177;28;20028;-75
2021/10/27 17:21:10;;;;;;;22.52;9.75;;;;;;;;;;5114110;28;20085;-74
2021/10/27 17:23:37;;;;;;;14.27;6.47;;;;;;;;;;5114176;28;20061;-76
2021/10/27 17:26:03;;;;;;;13.48;5.90;;;;;;;;;;5113940;28;20123;-77
2021/10/27 17:28:28;;;;;;;14.65;5.80;;;;;;;;;;5111595;28;20067;-78
2021/10/27 17:30:54;;;;;;;15.27;6.88;;;;;;;;;;5112918;28;20123;-77
2021/10/27 17:33:20;;;;;;;13.48;7.20;;;;;;;;;;5112886;28;20104;-77
2021/10/27 17:35:45;;;;;;;14.55;6.80;;;;;;;;;;5113563;28;20122;-77
2021/10/27 17:38:11;;;;;;;11.48;6.82;;;;;;;;;;5112805;28;20075;-77
2021/10/27 17:40:48;;;;;;;8.57;5.63;;;;;;;;;;5093140;28;20056;-77
2021/10/27 17:43:14;;;;;;;16.63;9.35;;;;;;;;;;5093677;28;20398;-76
2021/10/27 17:45:42;;;;;;;18.92;10.45;;;;;;;;;;5093251;28;20038;-76
2021/10/27 17:48:15;;;;;;;18.23;8.73;;;;;;;;;;5092331;28;20494;-74
2021/10/27 17:58:33;;;;;;;9.05;4.10;;;;;;;;;;5072875;28;20490;-75
2021/10/27 18:01:02;;;;;;;7.20;4.32;;;;;;;;;;5084384;28;20482;-76
2021/10/27 18:03:29;;;;;;;9.88;5.15;;;;;;;;;;5093556;28;20052;-76
2021/10/27 18:05:54;;;;;;;13.32;6.50;;;;;;;;;;5093323;28;20036;-76
2021/10/27 18:08:21;;;;;;;14.35;7.55;;;;;;;;;;5092128;28;20032;-76
2021/10/27 18:10:50;;;;;;;14.98;6.85;;;;;;;;;;5093203;28;20048;-76
2021/10/27 18:13:21;;;;;;;12.85;6.50;;;;;;;;;;5093216;28;20032;-76
2021/10/27 18:15:49;;;;;;;11.45;6.00;;;;;;;;;;5096976;28;20499;-76
2021/10/27 18:18:21;;;;;;;14.27;7.03;;;;;;;;;;5096609;28;20039;-76
2021/10/27 18:20:47;;;;;;;11.52;6.68;;;;;;;;;;5097300;28;20071;-76
2021/10/27 18:23:33;;;;;;;13.98;8.93;;;;;;;;;;5096847;28;20059;-78
2021/10/27 18:36:33;;;;;;;13.55;5.00;;;;;;;;;;5097016;28;20036;-76
2021/10/27 18:39:17;;;;;;;9.52;4.57;;;;;;;;;;5095850;28;20040;-76
2021/10/27 18:41:52;;;;;;;8.95;3.85;;;;;;;;;;5096535;28;20044;-76
2021/10/27 18:44:18;;;;;;;6.32;4.90;;;;;;;;;;5078830;28;20028;-76
2021/10/27 18:46:47;;;;;;;12.88;6.45;;;;;;;;;;5095833;28;20032;-76
2021/10/27 18:49:14;;;;;;;10.25;5.20;;;;;;;;;;5096517;28;20031;-77
2021/10/27 18:51:49;;;;;;;14.27;5.68;;;;;;;;;;5096857;28;20111;-76
2021/10/27 19:02:21;;;;;;;6.95;5.25;;;;;;;;;;5096393;28;20027;-76
2021/10/27 19:10:38;;;;;;;5.28;3.42;;;;;;;;;;5096481;28;20059;-76
2021/10/27 19:15:37;;;;;;;12.15;5.05;;;;;;;;;;5096274;28;20036;-76
2021/10/27 19:18:03;;;;;;;7.43;3.88;;;;;;;;;;5089923;28;20032;-76
2021/10/27 19:20:31;;;;;;;5.18;3.75;;;;;;;;;;5074464;28;20460;-76
2021/10/27 19:22:56;;;;;;;7.18;4.68;;;;;;;;;;5075249;28;20036;-76
2021/10/27 19:27:53;;;;;;;9.73;5.65;;;;;;;;;;5084241;28;20478;-77
2021/10/27 19:36:03;;;;;;;6.10;4.38;;;;;;;;;;5096107;28;20028;-76
2021/10/27 20:16:31;;;;;;;7.72;4.57;;;;;;;;;;5095107;28;20028;-77
2021/10/27 20:18:54;;;;;;;8.07;4.50;;;;;;;;;;5085866;28;20081;-76
2021/10/27 20:49:00;;;;;;;6.20;4.70;;;;;;;;;;5094687;28;20031;-77
2021/10/27 20:53:54;;;;;;;11.93;6.18;;;;;;;;;;5094057;28;20035;-76
2021/10/27 20:56:21;;;;;;;15.93;7.45;;;;;;;;;;5094388;28;20050;-77
2021/10/27 21:14:58;;;;;;;12.68;5.00;;;;;;;;;;5094104;28;20067;-76
2021/10/27 21:17:27;;;;;;;14.55;5.63;;;;;;;;;;5094057;28;20032;-76
2021/10/27 21:19:54;;;;;;;13.10;6.40;;;;;;;;;;5093616;28;20367;-76
2021/10/27 21:22:20;;;;;;;10.48;6.60;;;;;;;;;;5093834;28;20063;-76
2021/10/27 21:24:48;;;;;;;13.55;8.43;;;;;;;;;;5093938;28;20067;-76
2021/10/27 21:27:24;;;;;;;18.58;9.60;;;;;;;;;;5093673;28;20081;-76
2021/10/27 21:29:59;;;;;;;15.98;8.50;;;;;;;;;;5093787;28;20042;-76
2021/10/27 21:32:46;;;;;;;13.57;6.93;;;;;;;;;;5092715;28;20067;-76
2021/10/27 21:43:24;;;;;;;155.48;10.50;;;;;;;;;;5107807;28;20039;-76
2021/10/27 21:45:49;;;;;;;127.75;10.82;;;;;;;;;;5114019;28;20047;-76
2021/10/27 21:48:15;;;;;;;13.77;8.30;;;;;;;;;;5113621;28;20019;-76
2021/10/27 21:50:41;;;;;;;34.20;7.43;;;;;;;;;;5113478;28;20181;-77
2021/10/27 21:53:06;;;;;;;11.95;6.97;;;;;;;;;;5113515;28;20122;-76
2021/10/27 21:55:33;;;;;;;8.75;5.47;;;;;;;;;;5112417;28;20040;-76